Accueil
METAR-TAF:

METAR-TAF

Aéroports :

Aéroport de Reus

Reus, Espagne

latitude: 41-09N, longitude: 001-10E, altitude: 71 m

Observation

Le bulletin a été fait il y a 34 minutes, à 18:30 UTC
Vent 6 kt de nord
Température 10°C
Humidité 82%
Pression 1009 hPa
Visibilité 10 km ou plus
Quelques nuages à une hauteur de 5000 ft

METAR: LERS 201830Z 35006KT 9999 FEW050 10/07 Q1009

Heure: 20:04 (19:04 UTC)

Prévision

Le bulletin a été fait il y a 5 heures et 4 minutes, à 14:00 UTC
Prévision valable du 20 à 15 UTC au 21 à 15 UTC
Vent 4 kt de direction variable
Visibilité 10 km ou plus
Nuages épars à une hauteur de 2000 ft
Probabilité 30% :
Temporairement
du 21 à 00 UTC au 21 à 06 UTC
Visibilité: 3000 m
Nuages épars à une hauteur de 3000 ft, Cumulus congestus.
averses de pluie, brume

TAF: LERS 201400Z 2015/2115 VRB04KT 9999 SCT020 TX16/2113Z TN06/2106Z PROB30 TEMPO 2100/2106 3000 SHRA BR SCT030TCU

Observations et prévisions météorologiques de plus de 4000 aéroports (messages METAR et TAF).

Les stations disponibles sont représentées par des disques jaunes et rouges sur la carte.

Passer la souris dessus pour voir le nom de la station.

Cliquer dessus pour voir les observations et prévisions météorologiques.

Pour changer de carte: cliquez sur les boutons verts avec une croix noire pour zoomer, sur le bouton vert avec un tiret pour effectuer un zoom arrière, ou sur les flèches vertes pour les cartes adjacentes.


METAR-TAF: